sensor_id;sensor_type;location;lat;lon;timestamp;P1;durP1;ratioP1;P2;durP2;ratioP2
49812;SDS011;35706;52.100;5.056;2023-08-08T00:00:56;12.50;;;0.80;;
49812;SDS011;35706;52.100;5.056;2023-08-08T00:01:58;10.00;;;0.60;;
49812;SDS011;35706;52.100;5.056;2023-08-08T00:02:59;11.15;;;0.70;;
49812;SDS011;35706;52.100;5.056;2023-08-08T00:03:59;8.50;;;0.90;;
49812;SDS011;35706;52.100;5.056;2023-08-08T00:05:00;9.23;;;0.70;;
49812;SDS011;35706;52.100;5.056;2023-08-08T00:06:00;9.70;;;0.68;;
49812;SDS011;35706;52.100;5.056;2023-08-08T00:07:00;6.43;;;0.70;;
49812;SDS011;35706;52.100;5.056;2023-08-08T00:08:01;11.45;;;0.70;;
49812;SDS011;35706;52.100;5.056;2023-08-08T00:09:01;14.77;;;0.80;;
49812;SDS011;35706;52.100;5.056;2023-08-08T00:10:01;12.07;;;0.80;;
49812;SDS011;35706;52.100;5.056;2023-08-08T00:11:02;13.18;;;0.70;;
49812;SDS011;35706;52.100;5.056;2023-08-08T00:12:03;10.07;;;0.68;;
49812;SDS011;35706;52.100;5.056;2023-08-08T00:13:04;10.57;;;0.70;;
49812;SDS011;35706;52.100;5.056;2023-08-08T00:14:04;12.40;;;0.60;;
49812;SDS011;35706;52.100;5.056;2023-08-08T00:15:05;13.88;;;0.70;;
49812;SDS011;35706;52.100;5.056;2023-08-08T00:16:06;8.50;;;0.70;;
49812;SDS011;35706;52.100;5.056;2023-08-08T00:17:06;10.10;;;0.60;;
49812;SDS011;35706;52.100;5.056;2023-08-08T00:18:07;4.72;;;0.57;;
49812;SDS011;35706;52.100;5.056;2023-08-08T00:19:07;9.85;;;0.80;;
49812;SDS011;35706;52.100;5.056;2023-08-08T00:20:08;15.25;;;0.85;;
49812;SDS011;35706;52.100;5.056;2023-08-08T00:21:08;7.63;;;1.08;;
49812;SDS011;35706;52.100;5.056;2023-08-08T00:22:09;10.20;;;0.70;;
49812;SDS011;35706;52.100;5.056;2023-08-08T00:23:09;8.93;;;0.85;;
49812;SDS011;35706;52.100;5.056;2023-08-08T00:24:10;7.78;;;0.70;;
49812;SDS011;35706;52.100;5.056;2023-08-08T00:25:10;10.20;;;0.90;;
49812;SDS011;35706;52.100;5.056;2023-08-08T00:26:10;11.20;;;0.80;;
49812;SDS011;35706;52.100;5.056;2023-08-08T00:27:11;12.32;;;0.90;;
49812;SDS011;35706;52.100;5.056;2023-08-08T00:28:11;17.33;;;0.95;;
49812;SDS011;35706;52.100;5.056;2023-08-08T00:29:12;13.25;;;1.00;;
49812;SDS011;35706;52.100;5.056;2023-08-08T00:30:12;6.95;;;0.70;;
49812;SDS011;35706;52.100;5.056;2023-08-08T00:31:13;9.50;;;0.90;;
49812;SDS011;35706;52.100;5.056;2023-08-08T00:32:17;10.32;;;0.70;;
49812;SDS011;35706;52.100;5.056;2023-08-08T00:33:17;12.00;;;0.90;;
49812;SDS011;35706;52.100;5.056;2023-08-08T00:34:18;9.55;;;0.77;;
49812;SDS011;35706;52.100;5.056;2023-08-08T00:35:18;12.50;;;0.80;;
49812;SDS011;35706;52.100;5.056;2023-08-08T00:36:19;10.00;;;0.93;;
49812;SDS011;35706;52.100;5.056;2023-08-08T00:37:19;9.77;;;0.80;;
49812;SDS011;35706;52.100;5.056;2023-08-08T00:38:19;14.25;;;0.80;;
49812;SDS011;35706;52.100;5.056;2023-08-08T00:39:20;14.93;;;0.88;;
49812;SDS011;35706;52.100;5.056;2023-08-08T00:40:20;6.80;;;0.70;;
49812;SDS011;35706;52.100;5.056;2023-08-08T00:41:20;20.50;;;0.90;;
49812;SDS011;35706;52.100;5.056;2023-08-08T00:42:21;16.23;;;1.10;;
49812;SDS011;35706;52.100;5.056;2023-08-08T00:43:22;10.07;;;0.82;;
49812;SDS011;35706;52.100;5.056;2023-08-08T00:44:23;11.90;;;0.70;;
49812;SDS011;35706;52.100;5.056;2023-08-08T00:45:23;11.50;;;0.80;;
49812;SDS011;35706;52.100;5.056;2023-08-08T00:46:24;13.02;;;1.50;;
49812;SDS011;35706;52.100;5.056;2023-08-08T00:47:24;7.88;;;0.90;;
49812;SDS011;35706;52.100;5.056;2023-08-08T00:48:25;21.27;;;1.17;;
49812;SDS011;35706;52.100;5.056;2023-08-08T00:49:25;10.52;;;1.00;;
49812;SDS011;35706;52.100;5.056;2023-08-08T00:50:26;14.43;;;1.10;;
49812;SDS011;35706;52.100;5.056;2023-08-08T00:51:26;13.65;;;1.20;;
49812;SDS011;35706;52.100;5.056;2023-08-08T00:52:27;8.75;;;0.80;;
49812;SDS011;35706;52.100;5.056;2023-08-08T00:53:28;10.25;;;0.70;;
49812;SDS011;35706;52.100;5.056;2023-08-08T00:54:31;13.50;;;0.90;;
49812;SDS011;35706;52.100;5.056;2023-08-08T00:55:31;15.85;;;0.80;;
49812;SDS011;35706;52.100;5.056;2023-08-08T00:56:32;6.65;;;0.70;;
49812;SDS011;35706;52.100;5.056;2023-08-08T00:57:33;12.60;;;0.85;;
49812;SDS011;35706;52.100;5.056;2023-08-08T00:58:35;12.32;;;1.23;;
49812;SDS011;35706;52.100;5.056;2023-08-08T00:59:35;11.10;;;0.73;;
49812;SDS011;35706;52.100;5.056;2023-08-08T01:00:36;9.15;;;0.70;;
49812;SDS011;35706;52.100;5.056;2023-08-08T01:01:36;6.82;;;0.68;;
49812;SDS011;35706;52.100;5.056;2023-08-08T01:02:37;8.80;;;0.82;;
49812;SDS011;35706;52.100;5.056;2023-08-08T01:03:38;12.00;;;0.95;;
49812;SDS011;35706;52.100;5.056;2023-08-08T01:04:38;13.82;;;0.90;;
49812;SDS011;35706;52.100;5.056;2023-08-08T01:05:59;9.02;;;0.80;;
49812;SDS011;35706;52.100;5.056;2023-08-08T01:08:08;9.25;;;0.90;;
49812;SDS011;35706;52.100;5.056;2023-08-08T01:09:24;10.88;;;1.05;;
49812;SDS011;35706;52.100;5.056;2023-08-08T01:10:32;11.30;;;0.73;;
49812;SDS011;35706;52.100;5.056;2023-08-08T01:11:37;4.97;;;0.73;;
49812;SDS011;35706;52.100;5.056;2023-08-08T01:12:40;10.95;;;0.70;;
49812;SDS011;35706;52.100;5.056;2023-08-08T01:13:42;9.60;;;0.80;;
49812;SDS011;35706;52.100;5.056;2023-08-08T01:14:43;10.43;;;0.90;;
49812;SDS011;35706;52.100;5.056;2023-08-08T01:15:44;10.23;;;1.00;;
49812;SDS011;35706;52.100;5.056;2023-08-08T01:16:46;6.10;;;0.88;;
49812;SDS011;35706;52.100;5.056;2023-08-08T01:17:47;10.73;;;0.90;;
49812;SDS011;35706;52.100;5.056;2023-08-08T01:18:47;13.35;;;0.90;;
49812;SDS011;35706;52.100;5.056;2023-08-08T01:19:49;11.95;;;0.90;;
49812;SDS011;35706;52.100;5.056;2023-08-08T01:20:50;6.50;;;1.05;;
49812;SDS011;35706;52.100;5.056;2023-08-08T01:21:53;12.52;;;0.80;;
49812;SDS011;35706;52.100;5.056;2023-08-08T01:24:24;7.72;;;0.70;;
49812;SDS011;35706;52.100;5.056;2023-08-08T01:25:27;11.13;;;0.80;;
49812;SDS011;35706;52.100;5.056;2023-08-08T01:26:29;8.48;;;0.73;;
49812;SDS011;35706;52.100;5.056;2023-08-08T01:27:30;9.10;;;0.80;;
49812;SDS011;35706;52.100;5.056;2023-08-08T01:28:30;11.98;;;0.70;;
49812;SDS011;35706;52.100;5.056;2023-08-08T01:29:31;9.98;;;0.80;;
49812;SDS011;35706;52.100;5.056;2023-08-08T01:30:31;12.02;;;0.70;;
49812;SDS011;35706;52.100;5.056;2023-08-08T01:31:32;10.10;;;0.70;;
49812;SDS011;35706;52.100;5.056;2023-08-08T01:32:32;5.90;;;0.70;;
49812;SDS011;35706;52.100;5.056;2023-08-08T01:33:32;7.07;;;0.70;;
49812;SDS011;35706;52.100;5.056;2023-08-08T01:34:33;8.70;;;0.85;;
49812;SDS011;35706;52.100;5.056;2023-08-08T01:35:35;6.78;;;0.63;;
49812;SDS011;35706;52.100;5.056;2023-08-08T01:38:10;6.47;;;0.60;;
49812;SDS011;35706;52.100;5.056;2023-08-08T01:39:14;5.20;;;0.60;;
49812;SDS011;35706;52.100;5.056;2023-08-08T01:40:20;7.80;;;0.50;;
49812;SDS011;35706;52.100;5.056;2023-08-08T01:41:21;11.45;;;0.65;;
49812;SDS011;35706;52.100;5.056;2023-08-08T01:42:24;7.65;;;0.63;;
49812;SDS011;35706;52.100;5.056;2023-08-08T01:43:26;9.68;;;0.82;;
49812;SDS011;35706;52.100;5.056;2023-08-08T01:44:27;4.82;;;0.50;;
49812;SDS011;35706;52.100;5.056;2023-08-08T01:45:29;4.68;;;0.40;;
49812;SDS011;35706;52.100;5.056;2023-08-08T01:46:29;2.75;;;0.52;;
49812;SDS011;35706;52.100;5.056;2023-08-08T01:47:30;7.80;;;0.50;;
49812;SDS011;35706;52.100;5.056;2023-08-08T01:48:31;5.15;;;0.43;;
49812;SDS011;35706;52.100;5.056;2023-08-08T01:49:31;8.90;;;0.50;;
49812;SDS011;35706;52.100;5.056;2023-08-08T01:50:31;6.35;;;0.40;;
49812;SDS011;35706;52.100;5.056;2023-08-08T01:51:32;5.75;;;0.40;;
49812;SDS011;35706;52.100;5.056;2023-08-08T01:52:32;8.32;;;0.50;;
49812;SDS011;35706;52.100;5.056;2023-08-08T01:53:33;3.47;;;0.60;;
49812;SDS011;35706;52.100;5.056;2023-08-08T01:54:33;5.13;;;0.60;;
49812;SDS011;35706;52.100;5.056;2023-08-08T01:55:34;3.78;;;0.30;;
49812;SDS011;35706;52.100;5.056;2023-08-08T01:56:34;3.10;;;0.40;;
49812;SDS011;35706;52.100;5.056;2023-08-08T01:57:34;3.17;;;0.40;;
49812;SDS011;35706;52.100;5.056;2023-08-08T01:58:35;4.75;;;0.40;;
49812;SDS011;35706;52.100;5.056;2023-08-08T01:59:35;4.28;;;0.50;;
49812;SDS011;35706;52.100;5.056;2023-08-08T02:00:35;5.22;;;0.40;;
49812;SDS011;35706;52.100;5.056;2023-08-08T02:01:36;4.70;;;0.38;;
49812;SDS011;35706;52.100;5.056;2023-08-08T02:02:37;6.70;;;0.50;;
49812;SDS011;35706;52.100;5.056;2023-08-08T02:03:37;3.28;;;0.40;;
49812;SDS011;35706;52.100;5.056;2023-08-08T02:04:37;4.25;;;0.50;;
49812;SDS011;35706;52.100;5.056;2023-08-08T02:05:38;6.88;;;0.40;;
49812;SDS011;35706;52.100;5.056;2023-08-08T02:06:38;3.05;;;0.40;;
49812;SDS011;35706;52.100;5.056;2023-08-08T02:07:39;4.72;;;0.50;;
49812;SDS011;35706;52.100;5.056;2023-08-08T02:08:39;2.20;;;0.40;;
49812;SDS011;35706;52.100;5.056;2023-08-08T02:09:39;2.92;;;0.43;;
49812;SDS011;35706;52.100;5.056;2023-08-08T02:10:40;4.93;;;0.50;;
49812;SDS011;35706;52.100;5.056;2023-08-08T02:11:40;3.83;;;0.40;;
49812;SDS011;35706;52.100;5.056;2023-08-08T02:12:41;2.35;;;0.50;;
49812;SDS011;35706;52.100;5.056;2023-08-08T02:13:41;2.92;;;0.60;;
49812;SDS011;35706;52.100;5.056;2023-08-08T02:14:41;4.88;;;0.40;;
49812;SDS011;35706;52.100;5.056;2023-08-08T02:15:42;3.28;;;0.40;;
49812;SDS011;35706;52.100;5.056;2023-08-08T02:16:42;8.35;;;0.50;;
49812;SDS011;35706;52.100;5.056;2023-08-08T02:17:42;1.85;;;0.35;;
49812;SDS011;35706;52.100;5.056;2023-08-08T02:18:43;5.88;;;0.40;;
49812;SDS011;35706;52.100;5.056;2023-08-08T02:19:44;3.90;;;0.40;;
49812;SDS011;35706;52.100;5.056;2023-08-08T02:20:44;1.00;;;0.40;;
49812;SDS011;35706;52.100;5.056;2023-08-08T02:21:44;3.10;;;0.40;;
49812;SDS011;35706;52.100;5.056;2023-08-08T02:22:45;5.35;;;0.40;;
49812;SDS011;35706;52.100;5.056;2023-08-08T02:23:45;2.95;;;0.40;;
49812;SDS011;35706;52.100;5.056;2023-08-08T02:24:46;4.72;;;0.40;;
49812;SDS011;35706;52.100;5.056;2023-08-08T02:25:46;3.67;;;0.32;;
49812;SDS011;35706;52.100;5.056;2023-08-08T02:26:47;3.53;;;0.30;;
49812;SDS011;35706;52.100;5.056;2023-08-08T02:27:47;1.05;;;0.30;;
49812;SDS011;35706;52.100;5.056;2023-08-08T02:28:47;1.55;;;0.30;;
49812;SDS011;35706;52.100;5.056;2023-08-08T02:29:47;1.52;;;0.40;;
49812;SDS011;35706;52.100;5.056;2023-08-08T02:30:48;4.13;;;0.35;;
49812;SDS011;35706;52.100;5.056;2023-08-08T02:31:48;1.58;;;0.30;;
49812;SDS011;35706;52.100;5.056;2023-08-08T02:32:49;1.70;;;0.30;;
49812;SDS011;35706;52.100;5.056;2023-08-08T02:33:49;3.20;;;0.30;;
49812;SDS011;35706;52.100;5.056;2023-08-08T02:34:50;7.15;;;0.73;;
49812;SDS011;35706;52.100;5.056;2023-08-08T02:35:51;2.67;;;0.30;;
49812;SDS011;35706;52.100;5.056;2023-08-08T02:36:51;2.88;;;0.30;;
49812;SDS011;35706;52.100;5.056;2023-08-08T02:37:52;1.63;;;0.30;;
49812;SDS011;35706;52.100;5.056;2023-08-08T02:38:52;3.53;;;0.40;;
49812;SDS011;35706;52.100;5.056;2023-08-08T02:39:53;3.65;;;0.32;;
49812;SDS011;35706;52.100;5.056;2023-08-08T02:40:53;3.28;;;0.52;;
49812;SDS011;35706;52.100;5.056;2023-08-08T02:41:54;3.58;;;0.32;;
49812;SDS011;35706;52.100;5.056;2023-08-08T02:42:54;1.33;;;0.30;;
49812;SDS011;35706;52.100;5.056;2023-08-08T02:43:54;4.97;;;0.40;;
49812;SDS011;35706;52.100;5.056;2023-08-08T02:44:55;1.85;;;0.30;;
49812;SDS011;35706;52.100;5.056;2023-08-08T02:45:55;3.63;;;0.30;;
49812;SDS011;35706;52.100;5.056;2023-08-08T02:46:55;1.20;;;0.30;;
49812;SDS011;35706;52.100;5.056;2023-08-08T02:47:56;2.83;;;0.40;;
49812;SDS011;35706;52.100;5.056;2023-08-08T02:48:56;3.10;;;0.30;;
49812;SDS011;35706;52.100;5.056;2023-08-08T02:49:56;1.60;;;0.30;;
49812;SDS011;35706;52.100;5.056;2023-08-08T02:50:57;2.92;;;0.30;;
49812;SDS011;35706;52.100;5.056;2023-08-08T02:51:57;4.05;;;0.38;;
49812;SDS011;35706;52.100;5.056;2023-08-08T02:52:57;2.58;;;0.30;;
49812;SDS011;35706;52.100;5.056;2023-08-08T02:53:58;5.88;;;0.30;;
49812;SDS011;35706;52.100;5.056;2023-08-08T02:54:58;3.03;;;0.30;;
49812;SDS011;35706;52.100;5.056;2023-08-08T02:55:58;4.00;;;0.50;;
49812;SDS011;35706;52.100;5.056;2023-08-08T02:56:58;2.75;;;0.40;;
49812;SDS011;35706;52.100;5.056;2023-08-08T02:57:59;3.17;;;0.30;;
49812;SDS011;35706;52.100;5.056;2023-08-08T02:59:00;2.05;;;0.40;;
49812;SDS011;35706;52.100;5.056;2023-08-08T03:00:00;3.60;;;0.30;;
49812;SDS011;35706;52.100;5.056;2023-08-08T03:01:00;3.60;;;0.32;;
49812;SDS011;35706;52.100;5.056;2023-08-08T03:02:01;2.22;;;0.40;;
49812;SDS011;35706;52.100;5.056;2023-08-08T03:03:01;1.55;;;0.30;;
49812;SDS011;35706;52.100;5.056;2023-08-08T03:04:03;3.90;;;0.30;;
49812;SDS011;35706;52.100;5.056;2023-08-08T03:05:03;1.48;;;0.30;;
49812;SDS011;35706;52.100;5.056;2023-08-08T03:06:04;4.30;;;0.30;;
49812;SDS011;35706;52.100;5.056;2023-08-08T03:07:05;1.33;;;0.30;;
49812;SDS011;35706;52.100;5.056;2023-08-08T03:08:06;2.78;;;0.40;;
49812;SDS011;35706;52.100;5.056;2023-08-08T03:09:06;2.58;;;0.30;;
49812;SDS011;35706;52.100;5.056;2023-08-08T03:10:07;1.08;;;0.30;;
49812;SDS011;35706;52.100;5.056;2023-08-08T03:11:07;4.97;;;0.40;;
49812;SDS011;35706;52.100;5.056;2023-08-08T03:12:08;0.90;;;0.30;;
49812;SDS011;35706;52.100;5.056;2023-08-08T03:13:08;2.50;;;0.40;;
49812;SDS011;35706;52.100;5.056;2023-08-08T03:14:09;2.60;;;0.30;;
49812;SDS011;35706;52.100;5.056;2023-08-08T03:15:09;1.08;;;0.30;;
49812;SDS011;35706;52.100;5.056;2023-08-08T03:16:10;3.53;;;0.40;;
49812;SDS011;35706;52.100;5.056;2023-08-08T03:17:11;2.78;;;0.40;;
49812;SDS011;35706;52.100;5.056;2023-08-08T03:18:11;5.38;;;0.35;;
49812;SDS011;35706;52.100;5.056;2023-08-08T03:19:11;2.70;;;0.40;;
49812;SDS011;35706;52.100;5.056;2023-08-08T03:20:12;1.85;;;0.30;;
49812;SDS011;35706;52.100;5.056;2023-08-08T03:21:12;5.97;;;0.40;;
49812;SDS011;35706;52.100;5.056;2023-08-08T03:22:12;5.40;;;0.30;;
49812;SDS011;35706;52.100;5.056;2023-08-08T03:23:13;5.68;;;0.38;;
49812;SDS011;35706;52.100;5.056;2023-08-08T03:24:13;3.55;;;0.40;;
49812;SDS011;35706;52.100;5.056;2023-08-08T03:25:13;4.13;;;0.40;;
49812;SDS011;35706;52.100;5.056;2023-08-08T03:26:14;2.97;;;0.30;;
49812;SDS011;35706;52.100;5.056;2023-08-08T03:27:14;8.68;;;0.40;;
49812;SDS011;35706;52.100;5.056;2023-08-08T03:28:15;2.70;;;0.38;;
49812;SDS011;35706;52.100;5.056;2023-08-08T03:29:15;1.52;;;0.30;;
49812;SDS011;35706;52.100;5.056;2023-08-08T03:30:15;4.80;;;0.40;;
49812;SDS011;35706;52.100;5.056;2023-08-08T03:31:16;1.88;;;0.40;;
49812;SDS011;35706;52.100;5.056;2023-08-08T03:32:17;3.40;;;0.30;;
49812;SDS011;35706;52.100;5.056;2023-08-08T03:33:17;2.10;;;0.40;;
49812;SDS011;35706;52.100;5.056;2023-08-08T03:34:18;3.63;;;0.30;;
49812;SDS011;35706;52.100;5.056;2023-08-08T03:35:18;4.22;;;0.30;;
49812;SDS011;35706;52.100;5.056;2023-08-08T03:36:18;3.05;;;0.30;;
49812;SDS011;35706;52.100;5.056;2023-08-08T03:37:20;1.40;;;0.30;;
49812;SDS011;35706;52.100;5.056;2023-08-08T03:38:20;2.28;;;0.30;;
49812;SDS011;35706;52.100;5.056;2023-08-08T03:39:21;3.72;;;0.30;;
49812;SDS011;35706;52.100;5.056;2023-08-08T03:40:21;3.10;;;0.30;;
49812;SDS011;35706;52.100;5.056;2023-08-08T03:41:22;1.88;;;0.20;;
49812;SDS011;35706;52.100;5.056;2023-08-08T03:42:23;1.05;;;0.20;;
49812;SDS011;35706;52.100;5.056;2023-08-08T03:43:23;4.15;;;0.40;;
49812;SDS011;35706;52.100;5.056;2023-08-08T03:44:24;3.85;;;0.30;;
49812;SDS011;35706;52.100;5.056;2023-08-08T03:45:24;4.53;;;0.30;;
49812;SDS011;35706;52.100;5.056;2023-08-08T03:46:24;2.92;;;0.20;;
49812;SDS011;35706;52.100;5.056;2023-08-08T03:47:25;5.18;;;0.22;;
49812;SDS011;35706;52.100;5.056;2023-08-08T03:48:26;2.25;;;0.20;;
49812;SDS011;35706;52.100;5.056;2023-08-08T03:49:26;1.38;;;0.20;;
49812;SDS011;35706;52.100;5.056;2023-08-08T03:50:26;4.70;;;0.25;;
49812;SDS011;35706;52.100;5.056;2023-08-08T03:51:27;1.75;;;0.20;;
49812;SDS011;35706;52.100;5.056;2023-08-08T03:52:27;5.53;;;0.20;;
49812;SDS011;35706;52.100;5.056;2023-08-08T03:53:27;1.30;;;0.20;;
49812;SDS011;35706;52.100;5.056;2023-08-08T03:54:28;2.50;;;0.20;;
49812;SDS011;35706;52.100;5.056;2023-08-08T03:55:28;2.78;;;0.20;;
49812;SDS011;35706;52.100;5.056;2023-08-08T03:56:29;2.92;;;0.30;;
49812;SDS011;35706;52.100;5.056;2023-08-08T03:57:29;2.38;;;0.20;;
49812;SDS011;35706;52.100;5.056;2023-08-08T03:58:30;3.60;;;0.30;;
49812;SDS011;35706;52.100;5.056;2023-08-08T03:59:30;3.42;;;0.30;;
49812;SDS011;35706;52.100;5.056;2023-08-08T04:00:31;3.80;;;0.30;;
49812;SDS011;35706;52.100;5.056;2023-08-08T04:01:32;3.03;;;0.30;;
49812;SDS011;35706;52.100;5.056;2023-08-08T04:02:32;1.67;;;0.30;;
49812;SDS011;35706;52.100;5.056;2023-08-08T04:03:32;2.60;;;0.30;;
49812;SDS011;35706;52.100;5.056;2023-08-08T04:04:33;2.80;;;0.28;;
49812;SDS011;35706;52.100;5.056;2023-08-08T04:05:33;4.95;;;0.30;;
49812;SDS011;35706;52.100;5.056;2023-08-08T04:06:33;1.95;;;0.30;;
49812;SDS011;35706;52.100;5.056;2023-08-08T04:07:34;1.42;;;0.50;;
49812;SDS011;35706;52.100;5.056;2023-08-08T04:08:34;3.75;;;0.40;;
49812;SDS011;35706;52.100;5.056;2023-08-08T04:09:34;2.78;;;0.30;;
49812;SDS011;35706;52.100;5.056;2023-08-08T04:10:35;2.35;;;0.30;;
49812;SDS011;35706;52.100;5.056;2023-08-08T04:11:35;2.97;;;0.30;;
49812;SDS011;35706;52.100;5.056;2023-08-08T04:12:35;1.38;;;0.30;;
49812;SDS011;35706;52.100;5.056;2023-08-08T04:13:36;4.13;;;0.30;;
49812;SDS011;35706;52.100;5.056;2023-08-08T04:14:37;3.20;;;0.30;;
49812;SDS011;35706;52.100;5.056;2023-08-08T04:15:37;1.85;;;0.35;;
49812;SDS011;35706;52.100;5.056;2023-08-08T04:16:38;3.20;;;0.40;;
49812;SDS011;35706;52.100;5.056;2023-08-08T04:17:39;2.80;;;0.30;;
49812;SDS011;35706;52.100;5.056;2023-08-08T04:18:39;7.15;;;0.43;;
49812;SDS011;35706;52.100;5.056;2023-08-08T04:19:40;5.32;;;0.40;;
49812;SDS011;35706;52.100;5.056;2023-08-08T04:20:40;6.60;;;0.40;;
49812;SDS011;35706;52.100;5.056;2023-08-08T04:21:41;2.65;;;0.40;;
49812;SDS011;35706;52.100;5.056;2023-08-08T04:22:41;6.55;;;0.40;;
49812;SDS011;35706;52.100;5.056;2023-08-08T04:23:41;4.93;;;0.40;;
49812;SDS011;35706;52.100;5.056;2023-08-08T04:24:42;2.95;;;0.30;;
49812;SDS011;35706;52.100;5.056;2023-08-08T04:25:42;2.42;;;0.50;;
49812;SDS011;35706;52.100;5.056;2023-08-08T04:26:43;2.83;;;0.30;;
49812;SDS011;35706;52.100;5.056;2023-08-08T04:27:43;2.63;;;0.40;;
49812;SDS011;35706;52.100;5.056;2023-08-08T04:28:43;4.57;;;0.30;;
49812;SDS011;35706;52.100;5.056;2023-08-08T04:29:44;3.63;;;0.40;;
49812;SDS011;35706;52.100;5.056;2023-08-08T04:30:44;2.45;;;0.40;;
49812;SDS011;35706;52.100;5.056;2023-08-08T04:31:44;2.80;;;0.38;;
49812;SDS011;35706;52.100;5.056;2023-08-08T04:32:45;1.73;;;0.40;;
49812;SDS011;35706;52.100;5.056;2023-08-08T04:33:45;4.40;;;0.60;;
49812;SDS011;35706;52.100;5.056;2023-08-08T04:34:46;2.05;;;0.30;;
49812;SDS011;35706;52.100;5.056;2023-08-08T04:35:46;2.03;;;0.30;;
49812;SDS011;35706;52.100;5.056;2023-08-08T04:36:47;3.17;;;0.50;;
49812;SDS011;35706;52.100;5.056;2023-08-08T04:37:47;0.77;;;0.30;;
49812;SDS011;35706;52.100;5.056;2023-08-08T04:38:48;8.57;;;0.60;;
49812;SDS011;35706;52.100;5.056;2023-08-08T04:39:48;2.17;;;0.30;;
49812;SDS011;35706;52.100;5.056;2023-08-08T04:40:48;2.53;;;0.32;;
49812;SDS011;35706;52.100;5.056;2023-08-08T04:41:49;3.97;;;0.30;;
49812;SDS011;35706;52.100;5.056;2023-08-08T04:42:49;6.63;;;0.80;;
49812;SDS011;35706;52.100;5.056;2023-08-08T04:43:49;1.45;;;0.22;;
49812;SDS011;35706;52.100;5.056;2023-08-08T04:44:50;4.35;;;0.30;;
49812;SDS011;35706;52.100;5.056;2023-08-08T04:45:50;1.45;;;0.30;;
49812;SDS011;35706;52.100;5.056;2023-08-08T04:46:51;2.42;;;0.40;;
49812;SDS011;35706;52.100;5.056;2023-08-08T04:47:51;3.25;;;0.32;;
49812;SDS011;35706;52.100;5.056;2023-08-08T04:48:51;2.35;;;0.30;;
49812;SDS011;35706;52.100;5.056;2023-08-08T04:49:52;3.83;;;0.35;;
49812;SDS011;35706;52.100;5.056;2023-08-08T04:50:52;2.85;;;0.30;;
49812;SDS011;35706;52.100;5.056;2023-08-08T04:51:52;2.35;;;0.30;;
49812;SDS011;35706;52.100;5.056;2023-08-08T04:52:54;2.83;;;0.30;;
49812;SDS011;35706;52.100;5.056;2023-08-08T04:53:54;4.32;;;0.40;;
49812;SDS011;35706;52.100;5.056;2023-08-08T04:54:54;2.13;;;0.38;;
49812;SDS011;35706;52.100;5.056;2023-08-08T04:55:55;1.27;;;0.30;;
49812;SDS011;35706;52.100;5.056;2023-08-08T04:56:55;2.22;;;0.40;;
49812;SDS011;35706;52.100;5.056;2023-08-08T04:57:58;2.88;;;0.40;;
49812;SDS011;35706;52.100;5.056;2023-08-08T04:58:58;3.85;;;0.40;;
49812;SDS011;35706;52.100;5.056;2023-08-08T04:59:59;4.10;;;0.32;;
49812;SDS011;35706;52.100;5.056;2023-08-08T05:01:04;1.77;;;0.30;;
49812;SDS011;35706;52.100;5.056;2023-08-08T05:02:05;3.90;;;0.40;;
49812;SDS011;35706;52.100;5.056;2023-08-08T05:03:05;4.20;;;0.40;;
49812;SDS011;35706;52.100;5.056;2023-08-08T05:04:06;2.67;;;0.40;;
49812;SDS011;35706;52.100;5.056;2023-08-08T05:05:06;2.28;;;0.40;;
49812;SDS011;35706;52.100;5.056;2023-08-08T05:06:07;4.63;;;0.40;;
49812;SDS011;35706;52.100;5.056;2023-08-08T05:07:07;6.38;;;0.50;;
49812;SDS011;35706;52.100;5.056;2023-08-08T05:08:08;7.45;;;0.40;;
49812;SDS011;35706;52.100;5.056;2023-08-08T05:09:08;2.20;;;0.40;;
49812;SDS011;35706;52.100;5.056;2023-08-08T05:10:09;3.17;;;0.45;;
49812;SDS011;35706;52.100;5.056;2023-08-08T05:11:09;2.75;;;0.50;;
49812;SDS011;35706;52.100;5.056;2023-08-08T05:12:10;4.68;;;0.40;;
49812;SDS011;35706;52.100;5.056;2023-08-08T05:13:10;3.10;;;0.50;;
49812;SDS011;35706;52.100;5.056;2023-08-08T05:14:11;1.63;;;0.50;;
49812;SDS011;35706;52.100;5.056;2023-08-08T05:15:11;5.63;;;0.50;;
49812;SDS011;35706;52.100;5.056;2023-08-08T05:16:12;4.63;;;0.40;;
49812;SDS011;35706;52.100;5.056;2023-08-08T05:17:12;3.15;;;0.50;;
49812;SDS011;35706;52.100;5.056;2023-08-08T05:18:12;4.57;;;0.50;;
49812;SDS011;35706;52.100;5.056;2023-08-08T05:19:13;1.67;;;0.40;;
49812;SDS011;35706;52.100;5.056;2023-08-08T05:20:13;1.80;;;0.40;;
49812;SDS011;35706;52.100;5.056;2023-08-08T05:21:13;4.30;;;0.40;;
49812;SDS011;35706;52.100;5.056;2023-08-08T05:22:14;3.53;;;0.43;;
49812;SDS011;35706;52.100;5.056;2023-08-08T05:23:14;5.47;;;0.63;;
49812;SDS011;35706;52.100;5.056;2023-08-08T05:24:14;3.50;;;0.40;;
49812;SDS011;35706;52.100;5.056;2023-08-08T05:25:15;5.45;;;0.30;;
49812;SDS011;35706;52.100;5.056;2023-08-08T05:26:15;5.28;;;0.50;;
49812;SDS011;35706;52.100;5.056;2023-08-08T05:27:15;4.82;;;0.30;;
49812;SDS011;35706;52.100;5.056;2023-08-08T05:28:16;2.70;;;0.30;;
49812;SDS011;35706;52.100;5.056;2023-08-08T05:29:16;3.92;;;0.30;;
49812;SDS011;35706;52.100;5.056;2023-08-08T05:30:17;4.63;;;0.30;;
49812;SDS011;35706;52.100;5.056;2023-08-08T05:31:17;2.35;;;0.20;;
49812;SDS011;35706;52.100;5.056;2023-08-08T05:32:18;3.72;;;0.28;;
49812;SDS011;35706;52.100;5.056;2023-08-08T05:33:18;1.80;;;0.30;;
49812;SDS011;35706;52.100;5.056;2023-08-08T05:34:18;2.42;;;0.20;;
49812;SDS011;35706;52.100;5.056;2023-08-08T05:35:19;1.63;;;0.25;;
49812;SDS011;35706;52.100;5.056;2023-08-08T05:36:19;2.33;;;0.20;;
49812;SDS011;35706;52.100;5.056;2023-08-08T05:37:20;2.40;;;0.35;;
49812;SDS011;35706;52.100;5.056;2023-08-08T05:38:20;0.80;;;0.20;;
49812;SDS011;35706;52.100;5.056;2023-08-08T05:39:20;3.55;;;0.13;;
49812;SDS011;35706;52.100;5.056;2023-08-08T05:40:20;2.88;;;0.10;;
49812;SDS011;35706;52.100;5.056;2023-08-08T05:41:21;4.53;;;0.20;;
49812;SDS011;35706;52.100;5.056;2023-08-08T05:42:21;3.67;;;0.10;;
49812;SDS011;35706;52.100;5.056;2023-08-08T05:43:22;4.22;;;0.20;;
49812;SDS011;35706;52.100;5.056;2023-08-08T05:44:22;4.28;;;0.20;;
49812;SDS011;35706;52.100;5.056;2023-08-08T05:45:23;2.08;;;0.20;;
49812;SDS011;35706;52.100;5.056;2023-08-08T05:46:23;4.45;;;0.20;;
49812;SDS011;35706;52.100;5.056;2023-08-08T05:47:23;1.83;;;0.20;;
49812;SDS011;35706;52.100;5.056;2023-08-08T05:48:24;3.40;;;0.20;;
49812;SDS011;35706;52.100;5.056;2023-08-08T05:49:24;3.35;;;0.20;;
49812;SDS011;35706;52.100;5.056;2023-08-08T05:50:25;3.72;;;0.20;;
49812;SDS011;35706;52.100;5.056;2023-08-08T05:51:25;1.60;;;0.20;;
49812;SDS011;35706;52.100;5.056;2023-08-08T05:52:25;2.22;;;0.15;;
49812;SDS011;35706;52.100;5.056;2023-08-08T05:53:26;2.10;;;0.20;;
49812;SDS011;35706;52.100;5.056;2023-08-08T05:54:26;1.27;;;0.20;;
49812;SDS011;35706;52.100;5.056;2023-08-08T05:55:26;1.23;;;0.20;;
49812;SDS011;35706;52.100;5.056;2023-08-08T05:56:33;1.30;;;0.20;;
49812;SDS011;35706;52.100;5.056;2023-08-08T05:57:36;5.72;;;0.28;;
49812;SDS011;35706;52.100;5.056;2023-08-08T05:58:37;1.63;;;0.10;;
49812;SDS011;35706;52.100;5.056;2023-08-08T05:59:38;1.08;;;0.20;;
49812;SDS011;35706;52.100;5.056;2023-08-08T06:00:39;2.72;;;0.20;;
49812;SDS011;35706;52.100;5.056;2023-08-08T06:01:40;0.60;;;0.10;;
49812;SDS011;35706;52.100;5.056;2023-08-08T06:02:40;0.95;;;0.10;;
49812;SDS011;35706;52.100;5.056;2023-08-08T06:03:41;2.45;;;0.20;;
49812;SDS011;35706;52.100;5.056;2023-08-08T06:04:42;1.30;;;0.10;;
49812;SDS011;35706;52.100;5.056;2023-08-08T06:05:43;2.20;;;0.20;;
49812;SDS011;35706;52.100;5.056;2023-08-08T06:06:44;1.67;;;0.10;;
49812;SDS011;35706;52.100;5.056;2023-08-08T06:07:44;1.00;;;0.10;;
49812;SDS011;35706;52.100;5.056;2023-08-08T06:08:45;2.55;;;0.15;;
49812;SDS011;35706;52.100;5.056;2023-08-08T06:09:45;3.83;;;0.40;;